sensor_id;sensor_type;location;lat;lon;timestamp;pressure;altitude;pressure_sealevel;temperature;humidity
11712;BME280;5912;51.034;6.984;2022-10-17T00:01:10;100640.06;;;15.75;100.00
11712;BME280;5912;51.034;6.984;2022-10-17T00:03:37;100636.03;;;15.72;100.00
11712;BME280;5912;51.034;6.984;2022-10-17T00:06:06;100633.63;;;15.71;100.00
11712;BME280;5912;51.034;6.984;2022-10-17T00:08:31;100643.06;;;15.67;100.00
11712;BME280;5912;51.034;6.984;2022-10-17T00:10:59;100642.06;;;15.68;100.00
11712;BME280;5912;51.034;6.984;2022-10-17T00:13:25;100641.81;;;15.69;100.00
11712;BME280;5912;51.034;6.984;2022-10-17T00:15:50;100639.16;;;15.69;100.00
11712;BME280;5912;51.034;6.984;2022-10-17T00:18:16;100646.88;;;15.71;100.00
11712;BME280;5912;51.034;6.984;2022-10-17T00:20:41;100645.59;;;15.73;100.00
11712;BME280;5912;51.034;6.984;2022-10-17T00:23:06;100639.28;;;15.74;100.00
11712;BME280;5912;51.034;6.984;2022-10-17T00:25:31;100641.09;;;15.74;100.00
11712;BME280;5912;51.034;6.984;2022-10-17T00:27:57;100642.69;;;15.75;100.00
11712;BME280;5912;51.034;6.984;2022-10-17T00:30:22;100638.22;;;15.75;100.00
11712;BME280;5912;51.034;6.984;2022-10-17T00:32:47;100641.91;;;15.74;100.00
11712;BME280;5912;51.034;6.984;2022-10-17T00:35:13;100638.78;;;15.77;100.00
11712;BME280;5912;51.034;6.984;2022-10-17T00:37:38;100642.03;;;15.79;100.00
11712;BME280;5912;51.034;6.984;2022-10-17T00:40:04;100643.03;;;15.78;100.00
11712;BME280;5912;51.034;6.984;2022-10-17T00:42:30;100653.16;;;15.81;100.00
11712;BME280;5912;51.034;6.984;2022-10-17T00:45:28;100641.06;;;15.85;100.00
11712;BME280;5912;51.034;6.984;2022-10-17T00:47:58;100648.44;;;15.83;100.00
11712;BME280;5912;51.034;6.984;2022-10-17T00:50:25;100641.53;;;15.82;100.00
11712;BME280;5912;51.034;6.984;2022-10-17T00:52:51;100642.31;;;15.83;100.00
11712;BME280;5912;51.034;6.984;2022-10-17T00:55:21;100638.94;;;15.71;100.00
11712;BME280;5912;51.034;6.984;2022-10-17T00:57:47;100645.94;;;15.77;100.00
11712;BME280;5912;51.034;6.984;2022-10-17T01:00:15;100637.63;;;15.73;100.00
11712;BME280;5912;51.034;6.984;2022-10-17T01:02:41;100644.34;;;15.76;100.00
11712;BME280;5912;51.034;6.984;2022-10-17T01:05:07;100651.00;;;15.78;100.00
11712;BME280;5912;51.034;6.984;2022-10-17T01:07:33;100640.28;;;15.73;100.00
11712;BME280;5912;51.034;6.984;2022-10-17T01:09:59;100649.63;;;15.76;100.00
11712;BME280;5912;51.034;6.984;2022-10-17T01:15:31;100653.53;;;15.73;100.00
11712;BME280;5912;51.034;6.984;2022-10-17T01:18:23;100651.13;;;15.72;100.00
11712;BME280;5912;51.034;6.984;2022-10-17T01:34:31;100660.25;;;15.64;100.00
11712;BME280;5912;51.034;6.984;2022-10-17T01:37:05;100648.06;;;15.63;100.00
11712;BME280;5912;51.034;6.984;2022-10-17T01:39:41;100638.50;;;15.62;100.00
11712;BME280;5912;51.034;6.984;2022-10-17T01:42:25;100644.03;;;15.61;100.00
11712;BME280;5912;51.034;6.984;2022-10-17T01:45:04;100615.84;;;15.43;100.00
11712;BME280;5912;51.034;6.984;2022-10-17T01:47:32;100636.22;;;15.54;100.00
11712;BME280;5912;51.034;6.984;2022-10-17T01:50:10;100640.13;;;15.63;100.00
11712;BME280;5912;51.034;6.984;2022-10-17T01:52:43;100648.38;;;15.67;100.00
11712;BME280;5912;51.034;6.984;2022-10-17T01:55:14;100631.38;;;15.51;100.00
11712;BME280;5912;51.034;6.984;2022-10-17T01:57:48;100630.69;;;15.56;100.00
11712;BME280;5912;51.034;6.984;2022-10-17T02:00:18;100624.25;;;15.52;100.00
11712;BME280;5912;51.034;6.984;2022-10-17T02:02:45;100625.06;;;15.52;100.00
11712;BME280;5912;51.034;6.984;2022-10-17T02:05:16;100614.69;;;15.51;100.00
11712;BME280;5912;51.034;6.984;2022-10-17T02:07:43;100608.00;;;15.48;100.00
11712;BME280;5912;51.034;6.984;2022-10-17T02:10:15;100615.38;;;15.46;100.00
11712;BME280;5912;51.034;6.984;2022-10-17T02:15:30;100613.75;;;15.57;100.00
11712;BME280;5912;51.034;6.984;2022-10-17T02:18:15;100621.22;;;15.60;100.00
11712;BME280;5912;51.034;6.984;2022-10-17T02:20:55;100619.69;;;15.64;100.00
11712;BME280;5912;51.034;6.984;2022-10-17T02:23:54;100616.34;;;15.68;100.00
11712;BME280;5912;51.034;6.984;2022-10-17T02:26:28;100621.09;;;15.66;100.00
11712;BME280;5912;51.034;6.984;2022-10-17T02:29:20;100615.78;;;15.66;100.00
11712;BME280;5912;51.034;6.984;2022-10-17T02:31:53;100624.75;;;15.65;100.00
11712;BME280;5912;51.034;6.984;2022-10-17T02:34:23;100615.91;;;15.71;100.00
11712;BME280;5912;51.034;6.984;2022-10-17T02:36:58;100618.53;;;15.71;100.00
11712;BME280;5912;51.034;6.984;2022-10-17T02:39:26;100614.97;;;15.66;100.00
11712;BME280;5912;51.034;6.984;2022-10-17T02:41:54;100617.38;;;15.67;100.00
11712;BME280;5912;51.034;6.984;2022-10-17T02:44:21;100623.03;;;15.71;100.00
11712;BME280;5912;51.034;6.984;2022-10-17T02:46:52;100595.09;;;15.52;100.00
11712;BME280;5912;51.034;6.984;2022-10-17T02:49:27;100616.91;;;15.70;100.00
11712;BME280;5912;51.034;6.984;2022-10-17T02:52:04;100623.03;;;15.71;100.00
11712;BME280;5912;51.034;6.984;2022-10-17T02:54:40;100620.84;;;15.68;100.00
11712;BME280;5912;51.034;6.984;2022-10-17T02:58:10;100625.56;;;15.66;100.00
11712;BME280;5912;51.034;6.984;2022-10-17T03:00:17;100612.38;;;15.54;100.00
11712;BME280;5912;51.034;6.984;2022-10-17T03:02:46;100619.81;;;15.69;100.00
11712;BME280;5912;51.034;6.984;2022-10-17T03:05:15;100617.97;;;15.69;100.00
11712;BME280;5912;51.034;6.984;2022-10-17T03:07:40;100615.31;;;15.69;100.00
11712;BME280;5912;51.034;6.984;2022-10-17T03:10:06;100623.66;;;15.78;100.00
11712;BME280;5912;51.034;6.984;2022-10-17T03:12:31;100623.22;;;15.81;100.00
11712;BME280;5912;51.034;6.984;2022-10-17T03:14:59;100621.59;;;15.80;100.00
11712;BME280;5912;51.034;6.984;2022-10-17T03:17:24;100615.34;;;15.86;100.00
11712;BME280;5912;51.034;6.984;2022-10-17T03:19:50;100623.28;;;15.86;100.00
11712;BME280;5912;51.034;6.984;2022-10-17T03:22:15;100623.06;;;15.87;100.00
11712;BME280;5912;51.034;6.984;2022-10-17T03:24:40;100609.16;;;15.80;100.00
11712;BME280;5912;51.034;6.984;2022-10-17T03:27:06;100617.59;;;15.94;100.00
11712;BME280;5912;51.034;6.984;2022-10-17T03:29:31;100619.25;;;15.95;100.00
11712;BME280;5912;51.034;6.984;2022-10-17T03:31:56;100620.59;;;15.97;100.00
11712;BME280;5912;51.034;6.984;2022-10-17T03:34:21;100615.69;;;15.89;100.00
11712;BME280;5912;51.034;6.984;2022-10-17T03:36:47;100625.31;;;15.95;100.00
11712;BME280;5912;51.034;6.984;2022-10-17T03:39:13;100621.75;;;16.01;100.00
11712;BME280;5912;51.034;6.984;2022-10-17T03:41:38;100632.88;;;16.03;100.00
11712;BME280;5912;51.034;6.984;2022-10-17T03:44:03;100625.41;;;16.00;100.00
11712;BME280;5912;51.034;6.984;2022-10-17T03:46:29;100639.59;;;16.06;100.00
11712;BME280;5912;51.034;6.984;2022-10-17T03:48:54;100643.03;;;16.06;100.00
11712;BME280;5912;51.034;6.984;2022-10-17T03:51:19;100643.03;;;16.06;100.00
11712;BME280;5912;51.034;6.984;2022-10-17T03:53:45;100637.72;;;16.06;100.00
11712;BME280;5912;51.034;6.984;2022-10-17T03:56:12;100633.56;;;16.10;100.00
11712;BME280;5912;51.034;6.984;2022-10-17T03:58:39;100623.56;;;16.01;100.00
11712;BME280;5912;51.034;6.984;2022-10-17T04:01:06;100646.56;;;16.12;100.00
11712;BME280;5912;51.034;6.984;2022-10-17T04:03:32;100649.47;;;16.10;100.00
11712;BME280;5912;51.034;6.984;2022-10-17T04:06:01;100641.91;;;16.02;100.00
11712;BME280;5912;51.034;6.984;2022-10-17T04:08:27;100649.13;;;16.07;100.00
11712;BME280;5912;51.034;6.984;2022-10-17T04:10:57;100640.59;;;16.05;100.00
11712;BME280;5912;51.034;6.984;2022-10-17T04:13:23;100653.63;;;16.06;100.00
11712;BME280;5912;51.034;6.984;2022-10-17T04:16:13;100651.78;;;16.07;100.00
11712;BME280;5912;51.034;6.984;2022-10-17T04:18:38;100658.47;;;16.09;100.00
11712;BME280;5912;51.034;6.984;2022-10-17T04:21:05;100659.50;;;16.08;100.00
11712;BME280;5912;51.034;6.984;2022-10-17T04:23:31;100650.19;;;16.06;100.00
11712;BME280;5912;51.034;6.984;2022-10-17T04:25:58;100655.72;;;16.04;100.00
11712;BME280;5912;51.034;6.984;2022-10-17T04:28:25;100645.66;;;16.06;100.00
11712;BME280;5912;51.034;6.984;2022-10-17T04:30:59;100652.69;;;16.12;100.00
11712;BME280;5912;51.034;6.984;2022-10-17T04:33:24;100661.69;;;16.11;100.00
11712;BME280;5912;51.034;6.984;2022-10-17T04:36:01;100665.72;;;16.14;100.00
11712;BME280;5912;51.034;6.984;2022-10-17T04:38:27;100659.50;;;16.08;100.00
11712;BME280;5912;51.034;6.984;2022-10-17T04:40:53;100665.47;;;16.15;100.00
11712;BME280;5912;51.034;6.984;2022-10-17T04:43:19;100674.25;;;16.16;100.00
11712;BME280;5912;51.034;6.984;2022-10-17T04:45:44;100657.84;;;16.19;100.00
11712;BME280;5912;51.034;6.984;2022-10-17T04:48:10;100659.13;;;16.16;100.00
11712;BME280;5912;51.034;6.984;2022-10-17T04:50:35;100666.28;;;16.16;100.00
11712;BME280;5912;51.034;6.984;2022-10-17T04:53:00;100672.13;;;16.18;100.00
11712;BME280;5912;51.034;6.984;2022-10-17T04:55:26;100670.53;;;16.17;100.00
11712;BME280;5912;51.034;6.984;2022-10-17T04:57:51;100668.94;;;16.16;100.00
11712;BME280;5912;51.034;6.984;2022-10-17T05:00:17;100663.44;;;16.06;100.00
11712;BME280;5912;51.034;6.984;2022-10-17T05:02:42;100674.94;;;16.11;100.00
11712;BME280;5912;51.034;6.984;2022-10-17T05:05:07;100683.22;;;16.15;100.00
11712;BME280;5912;51.034;6.984;2022-10-17T05:07:33;100675.03;;;16.16;100.00
11712;BME280;5912;51.034;6.984;2022-10-17T05:09:58;100671.41;;;16.22;100.00
11712;BME280;5912;51.034;6.984;2022-10-17T05:12:24;100686.31;;;16.23;100.00
11712;BME280;5912;51.034;6.984;2022-10-17T05:14:50;100685.81;;;16.26;100.00
11712;BME280;5912;51.034;6.984;2022-10-17T05:17:15;100675.22;;;16.26;100.00
11712;BME280;5912;51.034;6.984;2022-10-17T05:19:40;100678.13;;;16.25;100.00
11712;BME280;5912;51.034;6.984;2022-10-17T05:22:06;100679.72;;;16.26;100.00
11712;BME280;5912;51.034;6.984;2022-10-17T05:24:31;100676.03;;;16.27;100.00
11712;BME280;5912;51.034;6.984;2022-10-17T05:26:56;100681.09;;;16.28;100.00
11712;BME280;5912;51.034;6.984;2022-10-17T05:29:22;100672.09;;;16.29;100.00
11712;BME280;5912;51.034;6.984;2022-10-17T05:31:47;100681.88;;;16.29;100.00
11712;BME280;5912;51.034;6.984;2022-10-17T05:34:12;100680.63;;;16.32;100.00
11712;BME280;5912;51.034;6.984;2022-10-17T05:36:37;100678.28;;;16.35;100.00
11712;BME280;5912;51.034;6.984;2022-10-17T05:39:03;100681.16;;;16.33;100.00
11712;BME280;5912;51.034;6.984;2022-10-17T05:41:28;100683.28;;;16.32;100.00
11712;BME280;5912;51.034;6.984;2022-10-17T05:43:53;100694.91;;;16.30;100.00
11712;BME280;5912;51.034;6.984;2022-10-17T05:46:19;100693.88;;;16.32;100.00
11712;BME280;5912;51.034;6.984;2022-10-17T05:48:44;100688.00;;;16.29;100.00
11712;BME280;5912;51.034;6.984;2022-10-17T05:51:10;100685.59;;;16.28;100.00
11712;BME280;5912;51.034;6.984;2022-10-17T05:53:40;100674.56;;;16.19;100.00
11712;BME280;5912;51.034;6.984;2022-10-17T05:56:07;100692.59;;;16.34;100.00
11712;BME280;5912;51.034;6.984;2022-10-17T05:58:34;100688.56;;;16.32;100.00
11712;BME280;5912;51.034;6.984;2022-10-17T06:01:03;100695.47;;;16.33;100.00
11712;BME280;5912;51.034;6.984;2022-10-17T06:03:29;100688.56;;;16.32;100.00
11712;BME280;5912;51.034;6.984;2022-10-17T06:05:55;100687.66;;;16.26;100.00
11712;BME280;5912;51.034;6.984;2022-10-17T06:08:20;100688.72;;;16.25;100.00
11712;BME280;5912;51.034;6.984;2022-10-17T06:10:47;100689.53;;;16.25;100.00
11712;BME280;5912;51.034;6.984;2022-10-17T06:13:13;100689.84;;;16.29;100.00
11712;BME280;5912;51.034;6.984;2022-10-17T06:15:39;100698.63;;;16.29;100.00
11712;BME280;5912;51.034;6.984;2022-10-17T06:18:04;100701.25;;;16.29;100.00
11712;BME280;5912;51.034;6.984;2022-10-17T06:20:29;100704.72;;;16.30;100.00
11712;BME280;5912;51.034;6.984;2022-10-17T06:22:55;100718.53;;;16.32;100.00
11712;BME280;5912;51.034;6.984;2022-10-17T06:25:20;100713.47;;;16.30;100.00
11712;BME280;5912;51.034;6.984;2022-10-17T06:27:45;100679.13;;;16.07;100.00
11712;BME280;5912;51.034;6.984;2022-10-17T06:30:11;100731.19;;;16.42;100.00
11712;BME280;5912;51.034;6.984;2022-10-17T06:32:36;100718.31;;;16.33;100.00
11712;BME280;5912;51.034;6.984;2022-10-17T06:35:01;100732.94;;;16.48;100.00
11712;BME280;5912;51.034;6.984;2022-10-17T06:37:30;100740.25;;;16.57;100.00
11712;BME280;5912;51.034;6.984;2022-10-17T06:39:57;100730.91;;;16.55;100.00
11712;BME280;5912;51.034;6.984;2022-10-17T06:42:22;100750.25;;;16.67;100.00
11712;BME280;5912;51.034;6.984;2022-10-17T06:44:47;100753.22;;;16.70;100.00
11712;BME280;5912;51.034;6.984;2022-10-17T06:47:13;100749.63;;;16.76;100.00
11712;BME280;5912;51.034;6.984;2022-10-17T06:49:38;100746.47;;;16.79;100.00
11712;BME280;5912;51.034;6.984;2022-10-17T06:52:03;100750.97;;;16.79;100.00
11712;BME280;5912;51.034;6.984;2022-10-17T06:54:29;100769.16;;;16.87;100.00
11712;BME280;5912;51.034;6.984;2022-10-17T06:56:54;100760.13;;;16.88;100.00
11712;BME280;5912;51.034;6.984;2022-10-17T06:59:20;100761.03;;;16.93;100.00
11712;BME280;5912;51.034;6.984;2022-10-17T07:01:46;100769.09;;;16.98;100.00
11712;BME280;5912;51.034;6.984;2022-10-17T07:04:11;100768.94;;;17.05;100.00
11712;BME280;5912;51.034;6.984;2022-10-17T07:06:37;100776.50;;;17.13;100.00
11712;BME280;5912;51.034;6.984;2022-10-17T07:09:03;100777.44;;;17.23;99.32
11712;BME280;5912;51.034;6.984;2022-10-17T07:11:31;100784.28;;;17.36;99.62
11712;BME280;5912;51.034;6.984;2022-10-17T07:13:56;100785.50;;;17.45;98.86
11712;BME280;5912;51.034;6.984;2022-10-17T07:16:22;100788.22;;;17.50;98.65
11712;BME280;5912;51.034;6.984;2022-10-17T07:18:48;100783.06;;;17.60;97.26
11712;BME280;5912;51.034;6.984;2022-10-17T07:21:14;100783.56;;;17.57;96.69
11712;BME280;5912;51.034;6.984;2022-10-17T07:23:40;100791.72;;;17.72;96.85
11712;BME280;5912;51.034;6.984;2022-10-17T07:26:08;100793.16;;;17.80;97.06
11712;BME280;5912;51.034;6.984;2022-10-17T07:28:35;100795.09;;;17.84;97.16
11712;BME280;5912;51.034;6.984;2022-10-17T07:31:16;100791.56;;;18.00;95.62
11712;BME280;5912;51.034;6.984;2022-10-17T07:33:42;100793.22;;;18.06;94.48
11712;BME280;5912;51.034;6.984;2022-10-17T07:36:08;100784.75;;;18.09;93.49
11712;BME280;5912;51.034;6.984;2022-10-17T07:38:35;100791.22;;;18.18;93.47
11712;BME280;5912;51.034;6.984;2022-10-17T07:41:01;100789.19;;;18.25;93.08
11712;BME280;5912;51.034;6.984;2022-10-17T07:43:28;100790.53;;;18.28;92.52
11712;BME280;5912;51.034;6.984;2022-10-17T07:45:54;100798.97;;;18.41;91.59
11712;BME280;5912;51.034;6.984;2022-10-17T07:48:20;100795.63;;;18.51;91.42
11712;BME280;5912;51.034;6.984;2022-10-17T07:50:46;100799.78;;;18.68;90.40
11712;BME280;5912;51.034;6.984;2022-10-17T07:53:12;100796.53;;;18.88;88.79
11712;BME280;5912;51.034;6.984;2022-10-17T07:55:38;100795.34;;;19.10;88.38
11712;BME280;5912;51.034;6.984;2022-10-17T07:58:04;100793.38;;;19.28;86.83
11712;BME280;5912;51.034;6.984;2022-10-17T08:00:29;100758.69;;;19.23;86.12
11712;BME280;5912;51.034;6.984;2022-10-17T08:02:54;100793.38;;;19.64;85.51
11712;BME280;5912;51.034;6.984;2022-10-17T08:05:32;100787.78;;;19.76;83.17
11712;BME280;5912;51.034;6.984;2022-10-17T08:07:58;100797.44;;;19.87;82.40
11712;BME280;5912;51.034;6.984;2022-10-17T08:10:24;100787.91;;;19.96;81.68
11712;BME280;5912;51.034;6.984;2022-10-17T08:12:55;100785.75;;;19.98;80.21
11712;BME280;5912;51.034;6.984;2022-10-17T08:15:21;100807.50;;;20.16;80.48
11712;BME280;5912;51.034;6.984;2022-10-17T08:17:47;100803.81;;;20.32;79.63
11712;BME280;5912;51.034;6.984;2022-10-17T08:20:12;100797.44;;;20.48;78.66
11712;BME280;5912;51.034;6.984;2022-10-17T08:22:38;100803.34;;;20.61;77.52
11712;BME280;5912;51.034;6.984;2022-10-17T08:25:03;100802.00;;;20.73;76.04
11712;BME280;5912;51.034;6.984;2022-10-17T08:27:29;100816.72;;;20.76;76.81
11712;BME280;5912;51.034;6.984;2022-10-17T08:29:54;100813.53;;;20.79;76.65
11712;BME280;5912;51.034;6.984;2022-10-17T08:32:21;100822.38;;;20.99;76.16
11712;BME280;5912;51.034;6.984;2022-10-17T08:34:47;100834.63;;;20.95;74.73
11712;BME280;5912;51.034;6.984;2022-10-17T08:37:13;100829.59;;;20.99;75.48
11712;BME280;5912;51.034;6.984;2022-10-17T08:39:40;100813.00;;;20.97;74.89
11712;BME280;5912;51.034;6.984;2022-10-17T08:45:11;100838.16;;;21.11;75.23
11712;BME280;5912;51.034;6.984;2022-10-17T08:47:43;100835.50;;;21.06;74.54
11712;BME280;5912;51.034;6.984;2022-10-17T08:52:53;100848.53;;;20.87;75.27
11712;BME280;5912;51.034;6.984;2022-10-17T08:55:36;100848.53;;;20.77;76.15
11712;BME280;5912;51.034;6.984;2022-10-17T08:58:10;100863.22;;;20.85;75.88
11712;BME280;5912;51.034;6.984;2022-10-17T09:00:37;100870.47;;;20.94;76.62
11712;BME280;5912;51.034;6.984;2022-10-17T09:03:21;100881.19;;;21.09;75.10
11712;BME280;5912;51.034;6.984;2022-10-17T09:06:11;100890.03;;;21.20;75.59
11712;BME280;5912;51.034;6.984;2022-10-17T09:14:33;100864.59;;;21.67;70.70
11712;BME280;5912;51.034;6.984;2022-10-17T09:22:28;100879.06;;;21.46;73.32
11712;BME280;5912;51.034;6.984;2022-10-17T09:24:57;100895.38;;;21.50;72.60
11712;BME280;5912;51.034;6.984;2022-10-17T09:27:30;100894.56;;;21.49;72.67
11712;BME280;5912;51.034;6.984;2022-10-17T09:33:14;100914.13;;;21.60;73.00
11712;BME280;5912;51.034;6.984;2022-10-17T09:35:41;100903.38;;;21.65;72.32
11712;BME280;5912;51.034;6.984;2022-10-17T09:38:14;100891.34;;;21.52;72.62
11712;BME280;5912;51.034;6.984;2022-10-17T09:40:40;100889.78;;;21.56;72.54
11712;BME280;5912;51.034;6.984;2022-10-17T09:43:06;100905.28;;;21.69;nan
11712;BME280;5912;51.034;6.984;2022-10-17T09:46:04;100909.28;;;21.72;72.15
11712;BME280;5912;51.034;6.984;2022-10-17T09:48:30;100886.56;;;21.64;72.83
11712;BME280;5912;51.034;6.984;2022-10-17T09:50:57;100908.22;;;21.78;72.71
11712;BME280;5912;51.034;6.984;2022-10-17T09:53:32;100905.28;;;21.79;71.79
11712;BME280;5912;51.034;6.984;2022-10-17T09:56:01;100911.16;;;21.76;71.41
11712;BME280;5912;51.034;6.984;2022-10-17T09:58:47;100906.31;;;21.73;71.99
11712;BME280;5912;51.034;6.984;2022-10-17T10:01:16;100909.00;;;21.68;71.39
11712;BME280;5912;51.034;6.984;2022-10-17T10:03:43;100912.22;;;21.60;71.87
11712;BME280;5912;51.034;6.984;2022-10-17T10:06:14;100913.31;;;21.54;73.17
11712;BME280;5912;51.034;6.984;2022-10-17T10:08:54;100913.84;;;21.51;73.14
11712;BME280;5912;51.034;6.984;2022-10-17T10:14:31;100922.66;;;21.42;74.21
11712;BME280;5912;51.034;6.984;2022-10-17T10:17:01;100922.94;;;21.40;74.64
11712;BME280;5912;51.034;6.984;2022-10-17T10:19:32;100936.31;;;21.50;75.01
11712;BME280;5912;51.034;6.984;2022-10-17T10:22:03;100932.03;;;21.59;73.97
11712;BME280;5912;51.034;6.984;2022-10-17T10:24:29;100935.22;;;21.71;73.97
11712;BME280;5912;51.034;6.984;2022-10-17T10:26:58;100934.72;;;21.79;73.06
11712;BME280;5912;51.034;6.984;2022-10-17T10:29:42;100917.59;;;21.75;72.71
11712;BME280;5912;51.034;6.984;2022-10-17T10:34:52;100923.50;;;21.77;72.28
11712;BME280;5912;51.034;6.984;2022-10-17T10:37:24;100937.94;;;21.86;71.79
11712;BME280;5912;51.034;6.984;2022-10-17T10:39:52;100945.41;;;21.84;71.17
11712;BME280;5912;51.034;6.984;2022-10-17T10:42:31;100942.19;;;21.87;71.69
11712;BME280;5912;51.034;6.984;2022-10-17T10:45:17;100941.16;;;21.88;71.91
11712;BME280;5912;51.034;6.984;2022-10-17T10:47:53;100947.00;;;21.85;72.97
11712;BME280;5912;51.034;6.984;2022-10-17T10:50:24;100952.38;;;21.85;72.73
11712;BME280;5912;51.034;6.984;2022-10-17T10:53:06;100959.06;;;21.88;72.39
11712;BME280;5912;51.034;6.984;2022-10-17T10:55:50;100981.03;;;21.90;72.46
11712;BME280;5912;51.034;6.984;2022-10-17T11:01:33;100970.28;;;21.95;72.37
11712;BME280;5912;51.034;6.984;2022-10-17T11:04:37;100969.75;;;22.03;72.92
11712;BME280;5912;51.034;6.984;2022-10-17T11:12:38;100970.03;;;22.07;71.13
11712;BME280;5912;51.034;6.984;2022-10-17T11:15:15;100979.69;;;21.98;71.50
11712;BME280;5912;51.034;6.984;2022-10-17T11:18:06;100956.13;;;21.84;72.23
11712;BME280;5912;51.034;6.984;2022-10-17T11:20:50;100944.34;;;21.70;73.11
11712;BME280;5912;51.034;6.984;2022-10-17T11:26:12;100956.94;;;21.55;74.73
11712;BME280;5912;51.034;6.984;2022-10-17T11:28:40;100982.59;;;21.51;74.88
11712;BME280;5912;51.034;6.984;2022-10-17T11:31:09;100976.72;;;21.44;75.70
11712;BME280;5912;51.034;6.984;2022-10-17T11:33:47;100984.22;;;21.52;75.15
11712;BME280;5912;51.034;6.984;2022-10-17T11:36:16;100997.84;;;21.45;74.96
11712;BME280;5912;51.034;6.984;2022-10-17T11:38:46;100987.41;;;21.44;76.18
11712;BME280;5912;51.034;6.984;2022-10-17T11:41:34;100993.53;;;21.44;75.71
11712;BME280;5912;51.034;6.984;2022-10-17T11:44:10;100981.25;;;21.48;75.97
11712;BME280;5912;51.034;6.984;2022-10-17T11:46:38;100986.63;;;21.53;75.87
11712;BME280;5912;51.034;6.984;2022-10-17T11:49:11;100974.56;;;21.51;76.18
11712;BME280;5912;51.034;6.984;2022-10-17T11:51:46;100989.81;;;21.60;76.03
11712;BME280;5912;51.034;6.984;2022-10-17T12:05:30;100991.47;;;21.76;75.68
11712;BME280;5912;51.034;6.984;2022-10-17T12:08:12;100996.81;;;21.86;76.05
11712;BME280;5912;51.034;6.984;2022-10-17T12:10:58;100997.06;;;22.00;74.64
11712;BME280;5912;51.034;6.984;2022-10-17T12:18:47;101001.63;;;22.00;74.53
11712;BME280;5912;51.034;6.984;2022-10-17T12:21:13;100987.97;;;21.91;75.01
11712;BME280;5912;51.034;6.984;2022-10-17T12:23:39;101000.00;;;21.98;75.30
11712;BME280;5912;51.034;6.984;2022-10-17T12:26:07;101002.44;;;21.90;75.38
11712;BME280;5912;51.034;6.984;2022-10-17T12:31:02;101009.66;;;21.84;75.30
11712;BME280;5912;51.034;6.984;2022-10-17T12:38:42;101003.75;;;21.72;77.25
11712;BME280;5912;51.034;6.984;2022-10-17T12:41:09;101000.81;;;21.69;77.13
11712;BME280;5912;51.034;6.984;2022-10-17T12:46:10;101033.25;;;21.77;77.40
11712;BME280;5912;51.034;6.984;2022-10-17T12:53:48;101016.28;;;21.42;80.00
11712;BME280;5912;51.034;6.984;2022-10-17T12:56:19;101025.91;;;21.38;80.66
11712;BME280;5912;51.034;6.984;2022-10-17T12:58:47;101033.16;;;21.37;79.09
11712;BME280;5912;51.034;6.984;2022-10-17T13:01:21;101029.91;;;21.35;76.46
11712;BME280;5912;51.034;6.984;2022-10-17T13:03:50;101031.50;;;21.36;77.29
11712;BME280;5912;51.034;6.984;2022-10-17T13:06:22;101031.78;;;21.35;77.77
11712;BME280;5912;51.034;6.984;2022-10-17T13:08:58;101032.34;;;21.37;78.15
11712;BME280;5912;51.034;6.984;2022-10-17T13:11:26;101033.94;;;21.33;77.33
11712;BME280;5912;51.034;6.984;2022-10-17T13:13:55;101037.69;;;21.37;77.87
11712;BME280;5912;51.034;6.984;2022-10-17T13:16:31;101045.16;;;21.40;77.73
11712;BME280;5912;51.034;6.984;2022-10-17T13:18:58;101048.66;;;21.40;77.95
11712;BME280;5912;51.034;6.984;2022-10-17T13:21:24;101046.81;;;21.41;78.01
11712;BME280;5912;51.034;6.984;2022-10-17T13:23:50;101050.28;;;21.46;78.53
11712;BME280;5912;51.034;6.984;2022-10-17T13:26:25;101051.63;;;21.54;78.17
11712;BME280;5912;51.034;6.984;2022-10-17T13:29:11;101057.25;;;21.57;77.72
11712;BME280;5912;51.034;6.984;2022-10-17T13:31:39;101064.75;;;21.65;76.13
11712;BME280;5912;51.034;6.984;2022-10-17T13:34:26;101068.47;;;21.54;76.53
11712;BME280;5912;51.034;6.984;2022-10-17T13:36:53;101073.28;;;21.52;76.32
11712;BME280;5912;51.034;6.984;2022-10-17T13:39:24;101080.78;;;21.55;76.15
11712;BME280;5912;51.034;6.984;2022-10-17T13:41:52;101072.50;;;21.57;76.41
11712;BME280;5912;51.034;6.984;2022-10-17T13:44:23;101067.66;;;21.54;75.55
11712;BME280;5912;51.034;6.984;2022-10-17T13:46:50;101082.66;;;21.50;74.89
11712;BME280;5912;51.034;6.984;2022-10-17T13:49:31;101055.06;;;21.34;74.67
11712;BME280;5912;51.034;6.984;2022-10-17T13:51:58;101055.06;;;21.29;74.95
11712;BME280;5912;51.034;6.984;2022-10-17T13:54:32;101071.38;;;21.43;75.09
11712;BME280;5912;51.034;6.984;2022-10-17T13:56:58;101078.38;;;21.44;74.76
11712;BME280;5912;51.034;6.984;2022-10-17T13:59:33;101079.97;;;21.45;74.76
11712;BME280;5912;51.034;6.984;2022-10-17T14:02:01;101078.63;;;21.42;76.06
11712;BME280;5912;51.034;6.984;2022-10-17T14:04:26;101080.78;;;21.45;76.43
11712;BME280;5912;51.034;6.984;2022-10-17T14:06:52;101077.03;;;21.51;76.00
11712;BME280;5912;51.034;6.984;2022-10-17T14:09:26;101075.47;;;21.65;76.48
11712;BME280;5912;51.034;6.984;2022-10-17T14:12:08;101080.88;;;21.80;76.11
11712;BME280;5912;51.034;6.984;2022-10-17T14:14:37;101080.88;;;21.95;75.42
11712;BME280;5912;51.034;6.984;2022-10-17T14:17:21;101072.31;;;22.09;74.15
11712;BME280;5912;51.034;6.984;2022-10-17T14:19:51;101079.81;;;22.22;75.08
11712;BME280;5912;51.034;6.984;2022-10-17T14:22:27;101067.22;;;22.17;73.96
11712;BME280;5912;51.034;6.984;2022-10-17T14:24:53;101077.66;;;22.29;73.81
11712;BME280;5912;51.034;6.984;2022-10-17T14:27:33;101081.41;;;22.28;74.00
11712;BME280;5912;51.034;6.984;2022-10-17T14:30:05;101086.78;;;22.28;74.41
11712;BME280;5912;51.034;6.984;2022-10-17T14:32:35;101079.81;;;22.22;74.46
11712;BME280;5912;51.034;6.984;2022-10-17T14:40:02;101090.78;;;21.85;75.40
11712;BME280;5912;51.034;6.984;2022-10-17T14:42:28;101097.47;;;21.77;75.65